Time;durP1;ratioP1;P1;durP2;ratioP2;P2;SDS_P1;SDS_P2;PMS_P1;PMS_P2;Temp;Humidity;BMP_temperature;BMP_pressure;BME280_temperature;BME280_humidity;BME280_pressure;Samples;Min_cycle;Max_cycle;Signal;HPM_P1;HPM_P2
2022/03/07 00:02:07;;;;;;;13.98;7.43;;;;;;;0.26;75.88;101211.59;5075561;28;20081;-61
2022/03/07 00:04:32;;;;;;;11.95;6.80;;;;;;;0.29;75.73;101206.53;5073807;28;20036;-60
2022/03/07 00:06:58;;;;;;;13.38;7.22;;;;;;;0.30;75.73;101206.56;5075162;28;20042;-61
2022/03/07 00:09:23;;;;;;;10.65;6.25;;;;;;;0.32;76.28;101210.09;5074328;28;20032;-60
2022/03/07 00:11:49;;;;;;;14.88;7.82;;;;;;;0.36;75.79;101205.88;5073994;28;20032;-60
2022/03/07 00:14:14;;;;;;;13.88;6.45;;;;;;;0.39;75.97;101199.09;5074711;28;20471;-60
2022/03/07 00:16:40;;;;;;;13.85;7.22;;;;;;;0.41;75.81;101209.50;5037198;28;20033;-60
2022/03/07 00:19:06;;;;;;;12.00;7.22;;;;;;;0.38;75.93;101205.09;5055297;28;20029;-61
2022/03/07 00:21:32;;;;;;;13.63;7.32;;;;;;;0.40;76.39;101192.22;5087866;28;20029;-60
2022/03/07 00:23:58;;;;;;;11.50;6.55;;;;;;;0.39;75.93;101201.69;5069165;28;20449;-60
2022/03/07 00:26:23;;;;;;;12.68;7.20;;;;;;;0.41;76.12;101199.16;5074741;28;20044;-60
2022/03/07 00:28:49;;;;;;;15.38;7.57;;;;;;;0.43;76.52;101198.38;5074596;28;20039;-60
2022/03/07 00:31:15;;;;;;;17.08;8.13;;;;;;;0.50;76.01;101196.88;5074076;28;20526;-60
2022/03/07 00:33:41;;;;;;;13.30;7.25;;;;;;;0.47;76.99;101201.94;5074219;28;20052;-61
2022/03/07 00:36:07;;;;;;;13.45;7.20;;;;;;;0.48;76.80;101193.38;5056320;28;20400;-60
2022/03/07 00:38:33;;;;;;;11.07;6.38;;;;;;;0.33;77.56;101201.50;5073316;28;20054;-60
2022/03/07 00:40:59;;;;;;;12.00;5.85;;;;;;;0.42;77.70;101190.56;5056798;28;20036;-60
2022/03/07 00:43:25;;;;;;;12.60;6.20;;;;;;;0.44;77.21;101194.97;5074066;28;20059;-61
2022/03/07 00:45:51;;;;;;;9.18;5.60;;;;;;;0.44;77.33;101191.53;5039823;28;20032;-60
2022/03/07 00:48:17;;;;;;;8.63;5.50;;;;;;;0.40;77.22;101187.94;5073744;28;20064;-60
2022/03/07 00:50:48;;;;;;;9.75;5.60;;;;;;;0.43;77.04;101181.97;5073393;28;20029;-60
2022/03/07 00:53:16;;;;;;;9.20;5.10;;;;;;;0.39;77.26;101185.28;5074076;28;20098;-60
2022/03/07 00:55:42;;;;;;;10.02;5.55;;;;;;;0.34;77.59;101171.34;5073464;28;20047;-60
2022/03/07 00:58:07;;;;;;;12.00;6.10;;;;;;;0.21;78.02;101165.78;5073565;28;20033;-60
2022/03/07 01:00:34;;;;;;;10.82;5.65;;;;;;;0.24;77.08;101170.19;5072843;28;20032;-60
2022/03/07 01:03:00;;;;;;;7.57;4.57;;;;;;;0.20;77.98;101169.22;5072826;28;20044;-60
2022/03/07 01:05:25;;;;;;;7.85;4.82;;;;;;;0.23;77.68;101169.28;5073705;28;20037;-60
2022/03/07 01:07:51;;;;;;;8.70;4.93;;;;;;;0.22;77.66;101164.94;5072743;28;20123;-60
2022/03/07 01:10:17;;;;;;;8.38;4.97;;;;;;;0.17;78.37;101161.34;5074376;28;20036;-60
2022/03/07 01:12:42;;;;;;;9.30;5.25;;;;;;;0.16;78.39;101159.59;5073378;28;20040;-60
2022/03/07 01:15:09;;;;;;;8.48;4.90;;;;;;;0.18;78.88;101159.63;5073608;28;20031;-60
2022/03/07 01:17:35;;;;;;;6.97;4.38;;;;;;;0.18;79.01;101154.47;5072380;28;20456;-60
2022/03/07 01:20:01;;;;;;;9.30;5.50;;;;;;;0.20;79.03;101152.78;5073836;28;20037;-60
2022/03/07 01:22:26;;;;;;;10.25;4.57;;;;;;;0.23;78.66;101153.78;5053107;28;20033;-60
2022/03/07 01:24:52;;;;;;;7.03;4.60;;;;;;;0.27;78.62;101148.72;5067601;28;20079;-60
2022/03/07 01:27:17;;;;;;;7.13;4.25;;;;;;;0.26;78.72;101141.78;5073350;28;20086;-60
2022/03/07 01:29:42;;;;;;;9.77;5.65;;;;;;;0.20;78.43;101135.59;5073420;28;20060;-60
2022/03/07 01:32:08;;;;;;;15.07;7.22;;;;;;;0.22;78.24;101130.47;5073367;28;20086;-60
2022/03/07 01:34:34;;;;;;;13.02;5.78;;;;;;;0.20;77.96;101127.84;5069557;28;20132;-60
2022/03/07 01:37:00;;;;;;;8.13;4.20;;;;;;;0.19;77.84;101120.03;5073664;28;20432;-60
2022/03/07 01:39:25;;;;;;;9.27;4.60;;;;;;;0.21;77.76;101131.31;5073271;28;20523;-60
2022/03/07 01:41:50;;;;;;;6.28;4.07;;;;;;;0.19;78.12;101120.91;5071356;28;20400;-59
2022/03/07 01:44:29;;;;;;;6.20;4.22;;;;;;;0.12;79.40;101124.16;5073268;28;20027;-60
2022/03/07 01:46:56;;;;;;;8.98;4.88;;;;;;;0.11;79.35;101113.72;5073199;28;20036;-60
2022/03/07 01:49:22;;;;;;;8.10;4.93;;;;;;;0.14;79.39;101111.25;5072353;28;20032;-60
2022/03/07 01:51:48;;;;;;;6.13;4.13;;;;;;;0.14;79.34;101112.13;5072215;28;20456;-60
2022/03/07 01:54:17;;;;;;;7.32;4.28;;;;;;;0.15;79.50;101113.88;5068820;28;20567;-60
2022/03/07 01:56:45;;;;;;;6.22;4.30;;;;;;;0.15;79.63;101102.66;5066723;28;20134;-60
2022/03/07 01:59:19;;;;;;;8.75;4.55;;;;;;;0.16;79.27;101110.50;5072988;28;20028;-59
2022/03/07 02:01:45;;;;;;;7.55;3.88;;;;;;;0.18;79.56;101103.66;5073378;28;20041;-60
2022/03/07 02:04:11;;;;;;;6.18;4.03;;;;;;;0.19;79.08;101110.56;5055087;28;20037;-60
2022/03/07 02:06:38;;;;;;;7.18;4.03;;;;;;;0.16;79.57;101100.16;5071845;28;20021;-60
2022/03/07 02:09:04;;;;;;;6.75;3.88;;;;;;;0.15;80.07;101098.38;5071807;28;20082;-59
2022/03/07 02:11:31;;;;;;;6.85;3.90;;;;;;;0.16;79.47;101089.81;5071802;28;20468;-61
2022/03/07 02:13:57;;;;;;;6.60;3.47;;;;;;;0.15;79.28;101084.56;5071550;28;20117;-60
2022/03/07 02:16:22;;;;;;;8.07;4.13;;;;;;;0.13;79.62;101089.72;5072913;28;20060;-60
2022/03/07 02:18:48;;;;;;;5.88;3.30;;;;;;;0.15;79.76;101093.19;5035228;28;20033;-60
2022/03/07 02:21:17;;;;;;;5.18;3.47;;;;;;;0.16;78.86;101094.06;5054916;28;20079;-60
2022/03/07 02:23:44;;;;;;;7.45;3.67;;;;;;;0.13;78.66;101087.13;5073534;28;20040;-59
2022/03/07 02:26:17;;;;;;;8.43;3.92;;;;;;;0.10;79.58;101081.84;5071563;28;20143;-60
2022/03/07 02:28:44;;;;;;;6.95;4.07;;;;;;;0.08;79.84;101075.78;5071646;28;20050;-60
2022/03/07 02:31:11;;;;;;;9.05;4.07;;;;;;;0.07;79.97;101076.56;5071650;28;20435;-60
2022/03/07 02:33:36;;;;;;;8.48;4.63;;;;;;;0.08;80.36;101073.19;5054976;28;20082;-60
2022/03/07 02:36:03;;;;;;;7.35;4.03;;;;;;;0.06;80.21;101069.66;5072367;28;20056;-59
2022/03/07 02:38:28;;;;;;;7.20;4.43;;;;;;;0.07;79.72;101074.00;5071478;28;20032;-60
2022/03/07 02:40:54;;;;;;;7.15;3.75;;;;;;;0.10;79.70;101075.81;5072650;28;20043;-59
2022/03/07 02:43:20;;;;;;;8.73;4.65;;;;;;;0.00;81.31;101074.66;5072453;28;20044;-59
2022/03/07 02:45:46;;;;;;;7.82;4.32;;;;;;;0.07;82.00;101073.13;5071772;28;20120;-60
2022/03/07 02:48:12;;;;;;;9.02;4.88;;;;;;;0.14;81.20;101075.06;5071430;28;20582;-61
2022/03/07 02:50:37;;;;;;;9.55;4.15;;;;;;;0.19;81.47;101073.50;5072683;28;20120;-59
2022/03/07 02:53:03;;;;;;;8.48;4.80;;;;;;;0.20;81.47;101075.25;5073973;28;20025;-59
2022/03/07 02:55:30;;;;;;;8.15;4.32;;;;;;;0.25;81.59;101078.88;5075141;28;20035;-60
2022/03/07 02:57:56;;;;;;;7.38;4.40;;;;;;;0.22;81.92;101068.44;5076378;28;20036;-59
2022/03/07 03:00:21;;;;;;;9.32;4.95;;;;;;;0.20;82.29;101081.31;5076381;28;20090;-59
2022/03/07 03:02:47;;;;;;;9.43;5.20;;;;;;;0.26;81.72;101074.59;5055403;28;20037;-60
2022/03/07 03:05:12;;;;;;;7.65;5.25;;;;;;;0.21;82.75;101069.28;5068214;28;20064;-59
2022/03/07 03:07:38;;;;;;;8.88;4.88;;;;;;;0.30;81.78;101081.59;5076073;28;20064;-59
2022/03/07 03:10:05;;;;;;;8.73;5.18;;;;;;;0.33;81.77;101076.53;5075967;28;20043;-60
2022/03/07 03:12:30;;;;;;;11.77;5.78;;;;;;;0.22;82.52;101069.31;5057712;28;20033;-60
2022/03/07 03:14:56;;;;;;;9.25;5.50;;;;;;;0.17;83.87;101076.06;5041938;28;20031;-60
2022/03/07 03:17:21;;;;;;;10.55;5.45;;;;;;;0.20;82.75;101077.84;5076331;28;20068;-60
2022/03/07 03:19:47;;;;;;;10.75;6.15;;;;;;;0.18;83.05;101077.81;5075855;28;20493;-60
2022/03/07 03:22:12;;;;;;;10.00;5.75;;;;;;;0.17;83.10;101082.94;5073443;28;20048;-60
2022/03/07 03:24:38;;;;;;;11.15;5.70;;;;;;;0.20;82.55;101086.50;5075953;28;20054;-60
2022/03/07 03:27:05;;;;;;;10.98;6.43;;;;;;;0.07;84.02;101092.09;5075754;28;20085;-60
2022/03/07 03:29:30;;;;;;;10.88;6.60;;;;;;;0.07;83.94;101089.50;5074521;28;20103;-60
2022/03/07 03:31:56;;;;;;;11.45;6.65;;;;;;;0.05;85.04;101090.31;5071119;28;20500;-60
2022/03/07 03:34:21;;;;;;;9.55;6.15;;;;;;;-0.02;85.29;101084.03;5068811;28;20049;-60
2022/03/07 03:36:47;;;;;;;12.23;6.72;;;;;;;-0.03;86.01;101097.78;5075411;28;20060;-59
2022/03/07 03:39:13;;;;;;;9.80;6.60;;;;;;;0.00;85.63;101092.75;5075355;28;20124;-60
2022/03/07 03:41:38;;;;;;;10.13;6.22;;;;;;;-0.03;86.24;101090.06;5075311;28;20028;-59
2022/03/07 03:44:04;;;;;;;10.88;6.72;;;;;;;-0.03;87.00;101090.91;5075730;28;20055;-59
2022/03/07 03:46:29;;;;;;;11.95;6.63;;;;;;;0.09;86.31;101093.03;5075968;28;20503;-60
2022/03/07 03:48:55;;;;;;;15.70;7.30;;;;;;;0.17;86.92;101090.69;5075737;28;20028;-59
2022/03/07 03:51:20;;;;;;;14.80;6.90;;;;;;;0.24;86.75;101092.66;5074113;28;20044;-59
2022/03/07 03:53:45;;;;;;;14.70;7.72;;;;;;;0.29;86.64;101101.41;5075256;28;20041;-60
2022/03/07 03:56:11;;;;;;;15.35;6.65;;;;;;;0.42;85.38;101095.78;5075608;28;20401;-60
2022/03/07 03:58:36;;;;;;;13.55;7.35;;;;;;;0.47;85.38;101096.78;5075447;28;20132;-60
2022/03/07 04:01:02;;;;;;;17.40;7.63;;;;;;;0.59;84.42;101101.47;5075305;28;20071;-59
2022/03/07 04:03:27;;;;;;;14.57;7.50;;;;;;;0.62;84.57;101095.50;5075241;28;20039;-60
2022/03/07 04:05:53;;;;;;;18.23;7.10;;;;;;;0.68;84.84;101101.75;5073835;28;20064;-59
2022/03/07 04:08:18;;;;;;;12.73;6.53;;;;;;;0.70;84.31;101092.31;5074768;28;20439;-59
2022/03/07 04:10:43;;;;;;;17.65;8.38;;;;;;;0.65;85.69;101093.91;5075618;28;20026;-60
2022/03/07 04:13:09;;;;;;;15.48;7.72;;;;;;;0.65;85.62;101096.50;5074689;28;20115;-60
2022/03/07 04:15:38;;;;;;;12.00;6.75;;;;;;;0.76;84.45;101093.31;5074014;28;20028;-59
2022/03/07 04:18:05;;;;;;;13.07;7.25;;;;;;;0.85;83.28;101104.84;5074802;28;20048;-62
2022/03/07 04:20:31;;;;;;;16.42;7.97;;;;;;;0.97;82.73;101099.13;5075196;28;20052;-59
2022/03/07 04:22:56;;;;;;;13.13;6.95;;;;;;;1.01;82.51;101106.16;5074966;28;20477;-60
2022/03/07 04:25:22;;;;;;;12.70;6.80;;;;;;;1.07;83.03;101106.31;5074597;28;20048;-59
2022/03/07 04:27:47;;;;;;;12.25;6.68;;;;;;;1.26;81.64;101107.72;5072836;28;20037;-61
2022/03/07 04:30:13;;;;;;;11.60;6.40;;;;;;;1.33;80.89;101103.59;5074677;28;20043;-59
2022/03/07 04:32:38;;;;;;;15.10;7.38;;;;;;;1.30;80.94;101098.31;5074842;28;20043;-59
2022/03/07 04:35:09;;;;;;;12.32;6.90;;;;;;;1.31;81.37;101094.88;5074472;28;20052;-59
2022/03/07 04:37:35;;;;;;;12.63;7.43;;;;;;;1.32;80.84;101105.31;5074213;28;20032;-59
2022/03/07 04:40:01;;;;;;;14.75;8.30;;;;;;;1.26;81.28;101097.34;5072582;28;20033;-59
2022/03/07 04:42:26;;;;;;;19.10;9.93;;;;;;;1.27;81.60;101103.41;5073515;28;20447;-59
2022/03/07 04:44:52;;;;;;;15.05;8.07;;;;;;;1.31;80.47;101106.13;5074705;28;20490;-59
2022/03/07 04:47:17;;;;;;;16.77;9.73;;;;;;;1.25;80.47;101095.63;5074068;28;20120;-59
2022/03/07 04:49:42;;;;;;;13.32;8.10;;;;;;;1.18;80.44;101088.50;5073924;28;20036;-60
2022/03/07 04:52:08;;;;;;;17.63;9.15;;;;;;;1.04;81.22;101095.91;5073745;28;20045;-60
2022/03/07 04:54:34;;;;;;;19.60;10.38;;;;;;;0.91;82.36;101086.00;5056139;28;20127;-60
2022/03/07 04:56:59;;;;;;;22.52;11.32;;;;;;;0.79;83.58;101098.59;5073034;28;20029;-61
2022/03/07 04:59:25;;;;;;;24.23;11.82;;;;;;;0.73;83.61;101089.81;5074082;28;20029;-59
2022/03/07 05:01:50;;;;;;;22.13;10.75;;;;;;;0.67;84.04;101088.75;5074038;28;20119;-59
2022/03/07 05:04:16;;;;;;;23.98;12.20;;;;;;;0.67;83.99;101088.75;5052343;28;20143;-60
2022/03/07 05:06:41;;;;;;;24.63;13.40;;;;;;;0.61;84.64;101094.63;5052965;28;20040;-60
2022/03/07 05:09:06;;;;;;;26.42;14.07;;;;;;;0.58;85.35;101088.50;5071222;28;20040;-59
2022/03/07 05:11:32;;;;;;;27.42;14.35;;;;;;;0.54;85.51;101087.53;5073827;28;20407;-59
2022/03/07 05:13:57;;;;;;;32.28;15.45;;;;;;;0.56;85.44;101083.28;5073943;28;20063;-59
2022/03/07 05:16:23;;;;;;;30.35;15.10;;;;;;;0.53;85.40;101084.91;5072396;28;20369;-59
2022/03/07 05:18:49;;;;;;;27.27;12.70;;;;;;;0.52;85.97;101089.19;5073252;28;20147;-59
2022/03/07 05:21:15;;;;;;;21.58;11.73;;;;;;;0.55;86.44;101089.28;5073957;28;20035;-59
2022/03/07 05:23:40;;;;;;;18.75;10.68;;;;;;;0.57;86.20;101091.91;5069502;28;20049;-59
2022/03/07 05:26:05;;;;;;;17.85;9.82;;;;;;;0.53;87.34;101090.06;5069177;28;20028;-60
2022/03/07 05:28:31;;;;;;;14.07;8.05;;;;;;;0.63;86.11;101087.78;5073217;28;20436;-59
2022/03/07 05:30:56;;;;;;;16.85;8.05;;;;;;;0.61;85.91;101083.41;5073363;28;20044;-59
2022/03/07 05:33:22;;;;;;;16.05;9.15;;;;;;;0.61;86.04;101079.13;5073403;28;20032;-60
2022/03/07 05:35:47;;;;;;;17.10;8.77;;;;;;;0.65;86.06;101078.38;5072937;28;20544;-59
2022/03/07 05:38:13;;;;;;;17.33;8.35;;;;;;;0.71;85.67;101083.72;5072677;28;20041;-59
2022/03/07 05:40:38;;;;;;;16.70;8.82;;;;;;;0.80;85.22;101084.81;5064978;28;20025;-59
2022/03/07 05:43:03;;;;;;;16.13;9.57;;;;;;;0.87;84.65;101081.59;5073183;28;20032;-59
2022/03/07 05:45:29;;;;;;;22.02;11.93;;;;;;;0.85;85.42;101088.44;5073148;28;20082;-59
2022/03/07 05:47:54;;;;;;;31.13;16.52;;;;;;;0.88;84.59;101091.13;5055510;28;20044;-59
2022/03/07 05:50:20;;;;;;;27.05;14.45;;;;;;;0.93;84.64;101093.00;5068925;28;20044;-60
2022/03/07 05:52:45;;;;;;;27.20;13.80;;;;;;;1.03;83.46;101088.06;5072943;28;20506;-59
2022/03/07 05:55:11;;;;;;;23.48;12.23;;;;;;;1.02;83.06;101094.97;5073699;28;20524;-59
2022/03/07 05:57:36;;;;;;;23.15;12.32;;;;;;;1.07;82.99;101090.78;5070962;28;20036;-60
2022/03/07 06:00:05;;;;;;;20.42;10.95;;;;;;;1.11;83.00;101094.34;5073352;28;20045;-60
2022/03/07 06:02:31;;;;;;;19.80;11.85;;;;;;;1.21;82.50;101094.66;5071481;28;20451;-62
2022/03/07 06:04:56;;;;;;;18.27;9.30;;;;;;;1.31;82.16;101100.06;5072644;28;20056;-63
2022/03/07 06:07:22;;;;;;;19.30;10.82;;;;;;;1.31;81.75;101092.31;5050973;28;20029;-61
2022/03/07 06:09:47;;;;;;;16.42;9.35;;;;;;;1.37;81.57;101103.72;5067803;28;20041;-60
2022/03/07 06:12:12;;;;;;;18.80;9.65;;;;;;;1.47;81.04;101097.94;5072994;28;20431;-61
2022/03/07 06:14:38;;;;;;;21.40;10.30;;;;;;;1.53;80.67;101097.22;5071816;28;20040;-60
2022/03/07 06:17:03;;;;;;;20.00;10.93;;;;;;;1.57;80.57;101098.19;5067491;28;20033;-61
2022/03/07 06:19:29;;;;;;;27.02;13.65;;;;;;;1.61;80.42;101098.31;5068104;28;20038;-61
2022/03/07 06:21:54;;;;;;;36.30;19.38;;;;;;;1.68;79.91;101102.81;5072872;28;20048;-60
2022/03/07 06:24:19;;;;;;;53.55;25.27;;;;;;;1.82;79.49;101099.69;5069469;28;21412;-61
2022/03/07 06:26:45;;;;;;;38.08;18.80;;;;;;;1.89;79.12;101101.59;5071388;28;20124;-61
2022/03/07 06:29:10;;;;;;;49.13;22.55;;;;;;;2.02;78.25;101098.47;5076265;28;20040;-61
2022/03/07 06:31:36;;;;;;;35.90;18.20;;;;;;;2.03;78.05;101100.22;5077384;28;20375;-61
2022/03/07 06:34:03;;;;;;;24.10;13.45;;;;;;;2.13;77.50;101090.97;5075885;28;20032;-61
2022/03/07 06:36:28;;;;;;;19.13;10.77;;;;;;;2.12;77.82;101078.84;5076134;28;20139;-61
2022/03/07 06:38:54;;;;;;;17.60;10.68;;;;;;;2.17;77.39;101092.78;5071415;28;20190;-61
2022/03/07 06:41:19;;;;;;;16.95;10.10;;;;;;;2.34;76.44;101081.06;5071816;28;20040;-61
2022/03/07 06:43:44;;;;;;;16.13;9.25;;;;;;;2.46;76.07;101090.84;5062296;28;20040;-60
2022/03/07 06:46:10;;;;;;;13.45;7.95;;;;;;;2.50;75.62;101084.91;5076022;28;20380;-61
2022/03/07 06:48:35;;;;;;;15.73;7.68;;;;;;;2.65;75.13;101087.84;5076856;28;20039;-61
2022/03/07 06:51:01;;;;;;;14.00;7.38;;;;;;;2.66;75.05;101079.19;5070866;28;20043;-61
2022/03/07 06:53:27;;;;;;;14.52;7.65;;;;;;;2.77;74.49;101086.34;5065498;28;20064;-60
2022/03/07 06:55:52;;;;;;;13.27;7.30;;;;;;;2.82;74.13;101087.31;5071584;28;20094;-61
2022/03/07 06:58:18;;;;;;;12.77;7.10;;;;;;;2.88;74.06;101090.06;5071766;28;20040;-60
2022/03/07 07:00:45;;;;;;;13.10;7.30;;;;;;;2.94;73.89;101079.78;5045641;28;20037;-62
2022/03/07 07:03:10;;;;;;;13.55;7.75;;;;;;;3.04;73.48;101076.53;5074987;28;20032;-60
2022/03/07 07:05:35;;;;;;;11.98;7.40;;;;;;;3.13;73.21;101074.13;5073896;28;20036;-60
2022/03/07 07:08:01;;;;;;;12.63;7.00;;;;;;;3.21;72.80;101075.13;5074948;28;20452;-60
2022/03/07 07:10:26;;;;;;;12.55;6.65;;;;;;;3.30;72.56;101078.75;5038347;28;20037;-60
2022/03/07 07:12:52;;;;;;;12.07;6.50;;;;;;;3.30;72.42;101079.63;5072730;28;20036;-60
2022/03/07 07:15:18;;;;;;;9.98;5.78;;;;;;;3.38;72.17;101079.78;5068182;28;20437;-61
2022/03/07 07:17:44;;;;;;;8.77;5.38;;;;;;;3.40;72.11;101080.69;5060002;28;20151;-60
2022/03/07 07:20:11;;;;;;;8.70;4.85;;;;;;;3.38;72.20;101077.19;5075574;28;20476;-60
2022/03/07 07:22:37;;;;;;;9.23;5.30;;;;;;;3.26;72.30;101075.22;5053282;28;20029;-66
2022/03/07 07:25:04;;;;;;;7.80;5.20;;;;;;;3.50;71.83;101077.41;5068956;28;20067;-61
2022/03/07 07:27:30;;;;;;;9.02;4.53;;;;;;;3.56;71.59;101067.13;5072416;28;20032;-65
2022/03/07 07:29:56;;;;;;;10.30;3.88;;;;;;;3.73;70.92;101069.16;5064488;28;20632;-61
2022/03/07 07:32:21;;;;;;;6.75;3.85;;;;;;;3.72;71.19;101067.41;5050647;28;20123;-61
2022/03/07 07:34:48;;;;;;;6.38;3.63;;;;;;;3.91;70.49;101057.34;5075954;28;20060;-61
2022/03/07 07:37:13;;;;;;;5.85;3.33;;;;;;;4.02;70.23;101064.41;5074292;28;20060;-62
2022/03/07 07:39:39;;;;;;;4.60;2.70;;;;;;;4.00;69.73;101064.41;5053042;28;20123;-61
2022/03/07 07:42:04;;;;;;;5.05;3.00;;;;;;;4.06;69.82;101064.50;5069692;28;20119;-61
2022/03/07 07:44:30;;;;;;;7.90;3.17;;;;;;;4.11;69.45;101067.16;5073905;28;20070;-60
2022/03/07 07:46:55;;;;;;;6.07;2.83;;;;;;;4.23;68.90;101067.38;5070159;28;20041;-61
2022/03/07 07:49:24;;;;;;;6.28;3.22;;;;;;;4.41;68.43;101058.94;5061380;28;20037;-60
2022/03/07 07:51:53;;;;;;;7.85;3.17;;;;;;;4.59;67.79;101059.22;5059002;28;20452;-60
2022/03/07 07:54:19;;;;;;;6.32;2.92;;;;;;;4.62;67.29;101060.97;5071342;28;20033;-60
2022/03/07 07:56:44;;;;;;;5.70;3.15;;;;;;;4.81;67.15;101055.16;5072150;28;20039;-61
2022/03/07 07:59:13;;;;;;;7.20;3.13;;;;;;;4.72;66.57;101059.38;5064739;28;20040;-63
2022/03/07 08:01:38;;;;;;;5.55;2.72;;;;;;;4.94;66.45;101058.78;5087642;28;20029;-59
2022/03/07 08:04:04;;;;;;;7.55;3.30;;;;;;;5.03;66.15;101064.13;5053926;28;20503;-64
2022/03/07 08:06:29;;;;;;;6.63;2.47;;;;;;;5.02;65.37;101072.75;5056358;28;20052;-65
2022/03/07 08:08:55;;;;;;;7.60;3.47;;;;;;;5.16;65.43;101066.00;5055743;28;20056;-64
2022/03/07 08:11:20;;;;;;;6.28;2.55;;;;;;;5.16;64.92;101055.56;5058733;28;20032;-64
2022/03/07 08:13:46;;;;;;;6.10;2.90;;;;;;;5.40;64.81;101060.16;5074595;28;20033;-65
2022/03/07 08:16:11;;;;;;;4.75;2.50;;;;;;;5.43;64.00;101060.22;5056076;28;20498;-65
2022/03/07 08:18:37;;;;;;;4.53;2.35;;;;;;;5.55;64.05;101055.97;5049870;28;20041;-64
2022/03/07 08:21:02;;;;;;;5.20;2.38;;;;;;;5.53;63.85;101063.78;5053498;28;20044;-65
2022/03/07 08:23:28;;;;;;;6.28;2.17;;;;;;;5.51;62.44;101062.91;5071653;28;20044;-64
2022/03/07 08:25:54;;;;;;;4.93;2.78;;;;;;;5.57;62.17;101052.50;5053965;28;20476;-64
2022/03/07 08:28:20;;;;;;;6.35;2.70;;;;;;;5.76;61.84;101058.78;5070084;28;20116;-65
2022/03/07 08:30:46;;;;;;;6.15;2.22;;;;;;;5.90;61.20;101061.50;5067896;28;20124;-64
2022/03/07 08:33:11;;;;;;;5.80;1.95;;;;;;;5.67;59.97;101071.75;5073307;28;20090;-64
2022/03/07 08:35:37;;;;;;;4.82;1.92;;;;;;;5.82;60.22;101065.75;5073846;28;20052;-63
2022/03/07 08:38:02;;;;;;;5.95;1.50;;;;;;;5.96;60.13;101064.19;5060200;28;20045;-64
2022/03/07 08:40:28;;;;;;;5.05;1.52;;;;;;;6.02;59.82;101064.22;5054711;28;20032;-63
2022/03/07 08:42:53;;;;;;;7.28;3.75;;;;;;;6.17;59.78;101073.91;5064021;28;20440;-64
2022/03/07 08:45:20;;;;;;;15.52;8.82;;;;;;;6.21;59.45;101074.81;5070262;28;20175;-63
2022/03/07 08:47:46;;;;;;;16.15;9.07;;;;;;;6.32;59.16;101073.16;5070165;28;20037;-65
2022/03/07 08:50:12;;;;;;;16.45;9.77;;;;;;;6.36;58.72;101074.94;5071894;28;20037;-63
2022/03/07 08:52:38;;;;;;;5.75;2.88;;;;;;;6.22;58.58;101081.78;5072924;28;20033;-63
2022/03/07 08:55:06;;;;;;;3.75;1.35;;;;;;;6.15;58.99;101084.34;5073012;28;20025;-63
2022/03/07 08:57:32;;;;;;;5.93;1.98;;;;;;;6.15;58.38;101091.31;5074164;28;20036;-63
2022/03/07 08:59:58;;;;;;;4.60;1.83;;;;;;;6.25;58.47;101094.84;5074118;28;20033;-64
2022/03/07 09:02:23;;;;;;;4.28;2.03;;;;;;;6.33;58.48;101093.16;5073924;28;20030;-63
2022/03/07 09:04:49;;;;;;;7.32;2.00;;;;;;;6.29;58.27;101087.03;5074360;28;20033;-64
2022/03/07 09:07:14;;;;;;;7.50;2.25;;;;;;;6.31;57.77;101098.38;5071615;28;20029;-64
2022/03/07 09:09:40;;;;;;;5.68;1.58;;;;;;;6.40;57.87;101090.59;5069235;28;20275;-65
2022/03/07 09:12:07;;;;;;;4.97;1.80;;;;;;;6.31;57.59;101100.13;5071852;28;20090;-65
2022/03/07 09:14:33;;;;;;;6.57;1.60;;;;;;;6.40;57.22;101101.06;5072603;28;20032;-65
2022/03/07 09:16:58;;;;;;;5.38;1.92;;;;;;;6.44;56.80;101091.50;5062856;28;20047;-65
2022/03/07 09:19:24;;;;;;;6.32;2.10;;;;;;;6.44;57.06;101104.56;5059442;28;20024;-66
2022/03/07 09:21:49;;;;;;;6.40;1.45;;;;;;;6.43;56.42;101100.22;5057583;28;20037;-66
2022/03/07 09:24:15;;;;;;;8.20;1.67;;;;;;;6.65;57.02;101096.84;5069235;28;20035;-65
2022/03/07 09:26:40;;;;;;;3.75;1.70;;;;;;;6.73;56.45;101096.91;5073247;28;20036;-65
2022/03/07 09:29:06;;;;;;;4.90;1.40;;;;;;;6.70;56.37;101103.84;5071980;28;20040;-65
2022/03/07 09:31:31;;;;;;;4.50;1.90;;;;;;;6.81;56.50;101113.47;5071507;28;20040;-65
2022/03/07 09:33:57;;;;;;;6.75;1.67;;;;;;;7.03;56.53;101098.78;5073962;28;20142;-65
2022/03/07 09:36:22;;;;;;;5.38;1.90;;;;;;;7.07;55.26;101104.91;5057946;28;20497;-65
2022/03/07 09:38:50;;;;;;;11.43;5.50;;;;;;;7.11;54.78;101101.44;5063788;28;20392;-65
2022/03/07 09:41:18;;;;;;;5.32;2.20;;;;;;;7.14;54.96;101115.41;5066692;28;20091;-66
2022/03/07 09:43:44;;;;;;;5.30;1.40;;;;;;;7.26;54.83;101109.34;5054439;28;20484;-65
2022/03/07 09:46:11;;;;;;;5.03;1.48;;;;;;;7.15;54.67;101111.91;5056516;28;20043;-65
2022/03/07 09:48:37;;;;;;;5.25;1.73;;;;;;;7.02;55.10;101122.28;5071614;28;20021;-65
2022/03/07 09:51:03;;;;;;;9.38;1.70;;;;;;;7.22;55.18;101119.75;5063890;28;20041;-65
2022/03/07 09:53:28;;;;;;;5.15;1.90;;;;;;;7.07;55.18;101126.69;5053407;28;20090;-65
2022/03/07 09:55:53;;;;;;;5.07;1.40;;;;;;;6.79;54.88;101133.50;5061543;28;20029;-65
2022/03/07 09:58:19;;;;;;;4.85;1.60;;;;;;;6.81;54.96;101133.50;5072384;28;20044;-66
2022/03/07 10:00:45;;;;;;;6.10;1.75;;;;;;;6.86;55.43;101137.91;5064689;28;20068;-66
2022/03/07 10:03:13;;;;;;;5.35;1.90;;;;;;;6.79;54.85;101135.25;5062977;28;20111;-66
2022/03/07 10:05:42;;;;;;;4.30;1.88;;;;;;;6.84;54.79;101133.53;5062249;28;20078;-64
2022/03/07 10:08:09;;;;;;;4.35;1.67;;;;;;;6.99;55.03;101151.91;5067985;28;20024;-66
2022/03/07 10:10:37;;;;;;;7.50;2.08;;;;;;;7.05;55.07;101132.75;5066648;28;20078;-66
2022/03/07 10:13:07;;;;;;;7.05;2.63;;;;;;;7.00;55.11;101137.09;5066183;28;20040;-65
2022/03/07 10:15:33;;;;;;;4.35;2.15;;;;;;;7.01;55.24;101137.09;5069700;28;20146;-65
2022/03/07 10:17:59;;;;;;;4.72;1.83;;;;;;;7.24;55.10;101131.13;5058197;28;20042;-66
2022/03/07 10:20:26;;;;;;;7.57;1.70;;;;;;;7.35;54.69;101143.34;5064407;28;20040;-65
2022/03/07 10:22:54;;;;;;;4.70;1.90;;;;;;;7.58;54.24;101145.16;5044497;28;20059;-66
2022/03/07 10:25:28;;;;;;;5.88;1.92;;;;;;;7.73;53.52;101139.09;5068398;28;20024;-67
2022/03/07 10:27:56;;;;;;;3.70;1.80;;;;;;;7.83;53.65;101135.63;5061093;28;20031;-68
2022/03/07 10:30:26;;;;;;;6.68;1.80;;;;;;;7.85;52.65;101134.75;5067145;28;20063;-65
2022/03/07 10:33:00;;;;;;;9.43;1.58;;;;;;;7.85;52.90;101144.34;5051725;28;20036;-66
2022/03/07 10:35:29;;;;;;;4.80;1.40;;;;;;;7.83;51.81;101131.28;5071337;28;20056;-65
2022/03/07 10:38:06;;;;;;;3.47;1.00;;;;;;;7.91;50.92;101139.13;5071525;28;20101;-65
2022/03/07 10:40:34;;;;;;;3.85;1.33;;;;;;;7.89;50.22;101140.88;5073532;28;20029;-65
2022/03/07 10:43:01;;;;;;;5.13;1.55;;;;;;;7.90;50.55;101134.78;5073002;28;20173;-65
2022/03/07 10:45:29;;;;;;;6.38;1.85;;;;;;;8.02;49.89;101139.13;5055090;28;20101;-65
2022/03/07 10:47:57;;;;;;;5.93;1.60;;;;;;;8.04;49.68;101129.56;5068300;28;20100;-66
2022/03/07 10:50:25;;;;;;;5.00;1.88;;;;;;;8.09;49.98;101133.91;5051534;28;20033;-65
2022/03/07 10:52:58;;;;;;;6.53;1.67;;;;;;;7.94;50.02;101143.47;5051811;28;20037;-65
2022/03/07 10:55:27;;;;;;;3.63;1.33;;;;;;;7.93;50.60;101157.44;5053981;28;20045;-65
2022/03/07 10:58:03;;;;;;;7.00;1.63;;;;;;;7.67;50.79;101137.34;5082918;28;20087;-65
2022/03/07 11:00:29;;;;;;;7.28;1.80;;;;;;;7.73;51.14;101133.88;5052629;28;20079;-66
2022/03/07 11:02:54;;;;;;;5.30;1.80;;;;;;;7.79;50.55;101133.91;5067897;28;20037;-65
2022/03/07 11:05:20;;;;;;;5.45;1.58;;;;;;;8.24;50.65;101133.03;5065052;28;20056;-65
2022/03/07 11:07:49;;;;;;;5.35;1.38;;;;;;;8.25;50.44;101145.25;5069568;28;20072;-65
2022/03/07 11:10:16;;;;;;;4.00;1.73;;;;;;;8.25;50.79;101134.78;5067398;28;20444;-65
2022/03/07 11:12:43;;;;;;;3.80;1.20;;;;;;;8.44;49.75;101145.28;5053345;28;20401;-65
2022/03/07 11:15:10;;;;;;;8.75;1.95;;;;;;;8.49;49.47;101144.41;5054346;28;20040;-65
2022/03/07 11:17:43;;;;;;;3.10;1.65;;;;;;;8.30;50.04;101138.28;5054691;28;20115;-65
2022/03/07 11:20:11;;;;;;;5.15;1.77;;;;;;;8.27;49.99;101142.66;5071733;28;20041;-65
2022/03/07 11:22:37;;;;;;;4.90;1.85;;;;;;;8.17;50.36;101130.41;5088890;28;20043;-65
2022/03/07 11:25:05;;;;;;;6.15;1.60;;;;;;;8.27;50.01;101138.28;5075226;28;20044;-65